Terminal Aerodrome Forecast
Issued by NWS

Current Version | Previous Version | Text Only | Print | Product List | Glossary On
Versions: 1 2 3 4 5 6 7 8 9 10 11 12 13 14 15 16 17 18 19 20 21 22 23 24 25 26
284
FTUS44 KLIX 260520
TAFHUM
TAF
KHUM 260520Z 2606/2706 10004KT P6SM VCSH FEW035
     FM261500 11004KT P6SM FEW030 SCT100 PROB30 2615/2618 4SM TSRA
      BKN030CB BKN035
     FM270000 15004KT P6SM SCT200=

USA.gov is the U.S. government's official web portal to all federal, state and local government web resources and services.